KDVO

Gnoss Field Airport

Novato, California, USA
METAR KDVO 240155Z AUTO 28008KT 240V310 10SM OVC019 15/10 A2997 RMK AO2
Observed Flight Rules
May-24 @ 01:55 UTC (12 minutes ago) Marginal Visual Flight Rules
Wind Visibility Clouds
280° at 8 knots 10 miles
  • Overcast at 1,900' AGL
Temperatures Readings
Current 15°C / 59°F
Dewpoint 10°C / 50°F
Humidity 72%
Altimeter 29.97" Hg
Pressure 1015 hPa
Elevation 1
METAR KDVO 240155Z AUTO 28008KT 240V310 10SM OVC019 15/10 A2997 RMK AO2
Observed Flight Rules
May-24 @ 01:55 UTC
(12 minutes ago)
MVFR
Wind Visibility
280° at 8 knots 10 miles
Clouds
  • Overcast at 1,900' AGL
Temperature Dewpoint
15°C / 59°F 10°C / 50°F
Humidity Altimeter Pressure
72% 29.97" Hg 1015 hPa